sensor_id;sensor_type;location;lat;lon;timestamp;P1;durP1;ratioP1;P2;durP2;ratioP2
56239;SDS011;42154;51.992;5.896;2024-02-16T00:00:58;3.45;;;2.30;;
56239;SDS011;42154;51.992;5.896;2024-02-16T00:03:25;3.45;;;2.13;;
56239;SDS011;42154;51.992;5.896;2024-02-16T00:05:52;3.97;;;2.00;;
56239;SDS011;42154;51.992;5.896;2024-02-16T00:08:18;2.25;;;1.80;;
56239;SDS011;42154;51.992;5.896;2024-02-16T00:10:45;3.28;;;1.92;;
56239;SDS011;42154;51.992;5.896;2024-02-16T00:13:11;3.05;;;1.95;;
56239;SDS011;42154;51.992;5.896;2024-02-16T00:15:37;3.88;;;2.13;;
56239;SDS011;42154;51.992;5.896;2024-02-16T00:18:04;5.20;;;1.98;;
56239;SDS011;42154;51.992;5.896;2024-02-16T00:20:30;2.90;;;1.85;;
56239;SDS011;42154;51.992;5.896;2024-02-16T00:22:56;2.40;;;1.73;;
56239;SDS011;42154;51.992;5.896;2024-02-16T00:25:22;2.75;;;1.95;;
56239;SDS011;42154;51.992;5.896;2024-02-16T00:27:49;4.68;;;2.45;;
56239;SDS011;42154;51.992;5.896;2024-02-16T00:30:18;4.60;;;2.20;;
56239;SDS011;42154;51.992;5.896;2024-02-16T00:32:44;4.20;;;2.38;;
56239;SDS011;42154;51.992;5.896;2024-02-16T00:35:14;3.83;;;2.38;;
56239;SDS011;42154;51.992;5.896;2024-02-16T00:37:44;2.72;;;2.10;;
56239;SDS011;42154;51.992;5.896;2024-02-16T00:40:13;4.50;;;2.22;;
56239;SDS011;42154;51.992;5.896;2024-02-16T00:42:39;4.57;;;2.00;;
56239;SDS011;42154;51.992;5.896;2024-02-16T00:45:05;3.53;;;2.13;;
56239;SDS011;42154;51.992;5.896;2024-02-16T00:47:31;2.70;;;1.73;;
56239;SDS011;42154;51.992;5.896;2024-02-16T00:49:56;4.28;;;2.10;;
56239;SDS011;42154;51.992;5.896;2024-02-16T00:52:23;3.70;;;1.88;;
56239;SDS011;42154;51.992;5.896;2024-02-16T00:54:49;4.38;;;2.35;;
56239;SDS011;42154;51.992;5.896;2024-02-16T00:57:15;3.88;;;1.95;;
56239;SDS011;42154;51.992;5.896;2024-02-16T00:59:41;4.90;;;2.25;;
56239;SDS011;42154;51.992;5.896;2024-02-16T01:02:07;4.68;;;1.95;;
56239;SDS011;42154;51.992;5.896;2024-02-16T01:04:34;2.67;;;1.95;;
56239;SDS011;42154;51.992;5.896;2024-02-16T01:07:00;4.57;;;1.80;;
56239;SDS011;42154;51.992;5.896;2024-02-16T01:09:26;2.72;;;1.80;;
56239;SDS011;42154;51.992;5.896;2024-02-16T01:11:52;3.08;;;1.95;;
56239;SDS011;42154;51.992;5.896;2024-02-16T01:14:18;3.75;;;2.13;;
56239;SDS011;42154;51.992;5.896;2024-02-16T01:16:44;2.85;;;1.90;;
56239;SDS011;42154;51.992;5.896;2024-02-16T01:19:11;3.38;;;1.75;;
56239;SDS011;42154;51.992;5.896;2024-02-16T01:21:37;4.95;;;1.70;;
56239;SDS011;42154;51.992;5.896;2024-02-16T01:24:03;4.18;;;1.85;;
56239;SDS011;42154;51.992;5.896;2024-02-16T01:26:30;2.53;;;1.40;;
56239;SDS011;42154;51.992;5.896;2024-02-16T01:28:57;3.75;;;1.88;;
56239;SDS011;42154;51.992;5.896;2024-02-16T01:31:23;2.35;;;1.45;;
56239;SDS011;42154;51.992;5.896;2024-02-16T01:33:49;2.55;;;1.48;;
56239;SDS011;42154;51.992;5.896;2024-02-16T01:36:15;4.68;;;1.90;;
56239;SDS011;42154;51.992;5.896;2024-02-16T01:38:40;2.70;;;1.45;;
56239;SDS011;42154;51.992;5.896;2024-02-16T01:41:06;2.85;;;1.50;;
56239;SDS011;42154;51.992;5.896;2024-02-16T01:43:34;2.30;;;1.50;;
56239;SDS011;42154;51.992;5.896;2024-02-16T01:45:59;2.85;;;1.67;;
56239;SDS011;42154;51.992;5.896;2024-02-16T01:48:26;2.95;;;1.60;;
56239;SDS011;42154;51.992;5.896;2024-02-16T01:50:52;2.40;;;1.55;;
56239;SDS011;42154;51.992;5.896;2024-02-16T01:53:19;3.75;;;1.70;;
56239;SDS011;42154;51.992;5.896;2024-02-16T01:55:46;3.00;;;1.50;;
56239;SDS011;42154;51.992;5.896;2024-02-16T01:58:12;4.45;;;1.77;;
56239;SDS011;42154;51.992;5.896;2024-02-16T02:00:38;3.00;;;2.05;;
56239;SDS011;42154;51.992;5.896;2024-02-16T02:03:06;4.82;;;1.80;;
56239;SDS011;42154;51.992;5.896;2024-02-16T02:05:32;2.88;;;1.75;;
56239;SDS011;42154;51.992;5.896;2024-02-16T02:07:58;3.63;;;1.90;;
56239;SDS011;42154;51.992;5.896;2024-02-16T02:10:24;2.85;;;1.70;;
56239;SDS011;42154;51.992;5.896;2024-02-16T02:12:50;2.63;;;1.60;;
56239;SDS011;42154;51.992;5.896;2024-02-16T02:15:16;2.35;;;1.75;;
56239;SDS011;42154;51.992;5.896;2024-02-16T02:17:41;2.67;;;1.40;;
56239;SDS011;42154;51.992;5.896;2024-02-16T02:20:07;5.47;;;1.70;;
56239;SDS011;42154;51.992;5.896;2024-02-16T02:22:39;4.10;;;1.90;;
56239;SDS011;42154;51.992;5.896;2024-02-16T02:25:04;2.13;;;1.42;;
56239;SDS011;42154;51.992;5.896;2024-02-16T02:27:30;4.78;;;1.60;;
56239;SDS011;42154;51.992;5.896;2024-02-16T02:29:56;1.77;;;1.35;;
56239;SDS011;42154;51.992;5.896;2024-02-16T02:32:23;3.00;;;1.50;;
56239;SDS011;42154;51.992;5.896;2024-02-16T02:34:49;2.13;;;1.45;;
56239;SDS011;42154;51.992;5.896;2024-02-16T02:37:15;2.05;;;1.10;;
56239;SDS011;42154;51.992;5.896;2024-02-16T02:39:41;2.03;;;1.42;;
56239;SDS011;42154;51.992;5.896;2024-02-16T02:42:06;2.80;;;1.60;;
56239;SDS011;42154;51.992;5.896;2024-02-16T02:44:33;3.38;;;1.55;;
56239;SDS011;42154;51.992;5.896;2024-02-16T02:46:59;1.92;;;1.40;;
56239;SDS011;42154;51.992;5.896;2024-02-16T02:49:25;2.10;;;1.48;;
56239;SDS011;42154;51.992;5.896;2024-02-16T02:51:50;3.55;;;1.83;;
56239;SDS011;42154;51.992;5.896;2024-02-16T02:54:16;2.42;;;1.60;;
56239;SDS011;42154;51.992;5.896;2024-02-16T02:56:42;2.22;;;1.38;;
56239;SDS011;42154;51.992;5.896;2024-02-16T02:59:08;2.15;;;1.60;;
56239;SDS011;42154;51.992;5.896;2024-02-16T03:01:35;3.95;;;1.25;;
56239;SDS011;42154;51.992;5.896;2024-02-16T03:04:02;2.47;;;1.52;;
56239;SDS011;42154;51.992;5.896;2024-02-16T03:06:28;2.33;;;1.30;;
56239;SDS011;42154;51.992;5.896;2024-02-16T03:08:54;2.00;;;1.27;;
56239;SDS011;42154;51.992;5.896;2024-02-16T03:11:20;3.33;;;1.40;;
56239;SDS011;42154;51.992;5.896;2024-02-16T03:13:45;2.38;;;1.70;;
56239;SDS011;42154;51.992;5.896;2024-02-16T03:16:11;4.80;;;1.90;;
56239;SDS011;42154;51.992;5.896;2024-02-16T03:18:37;3.05;;;1.92;;
56239;SDS011;42154;51.992;5.896;2024-02-16T03:21:03;1.85;;;1.40;;
56239;SDS011;42154;51.992;5.896;2024-02-16T03:23:29;3.47;;;1.95;;
56239;SDS011;42154;51.992;5.896;2024-02-16T03:25:56;3.53;;;1.60;;
56239;SDS011;42154;51.992;5.896;2024-02-16T03:28:21;2.33;;;1.50;;
56239;SDS011;42154;51.992;5.896;2024-02-16T03:30:47;3.15;;;1.40;;
56239;SDS011;42154;51.992;5.896;2024-02-16T03:33:13;2.63;;;1.50;;
56239;SDS011;42154;51.992;5.896;2024-02-16T03:35:39;2.15;;;1.60;;
56239;SDS011;42154;51.992;5.896;2024-02-16T03:38:07;2.35;;;1.30;;
56239;SDS011;42154;51.992;5.896;2024-02-16T03:40:33;2.50;;;1.45;;
56239;SDS011;42154;51.992;5.896;2024-02-16T03:42:59;2.65;;;1.48;;
56239;SDS011;42154;51.992;5.896;2024-02-16T03:45:25;3.47;;;1.60;;
56239;SDS011;42154;51.992;5.896;2024-02-16T03:47:54;1.85;;;1.33;;
56239;SDS011;42154;51.992;5.896;2024-02-16T03:50:20;2.22;;;1.42;;
56239;SDS011;42154;51.992;5.896;2024-02-16T03:52:46;2.97;;;1.40;;
56239;SDS011;42154;51.992;5.896;2024-02-16T03:55:11;3.05;;;1.75;;
56239;SDS011;42154;51.992;5.896;2024-02-16T03:57:40;2.40;;;1.67;;
56239;SDS011;42154;51.992;5.896;2024-02-16T04:00:06;3.17;;;1.70;;
56239;SDS011;42154;51.992;5.896;2024-02-16T04:02:42;2.15;;;1.58;;
56239;SDS011;42154;51.992;5.896;2024-02-16T04:05:08;2.72;;;1.50;;
56239;SDS011;42154;51.992;5.896;2024-02-16T04:07:37;3.47;;;1.50;;
56239;SDS011;42154;51.992;5.896;2024-02-16T04:10:02;3.55;;;1.80;;
56239;SDS011;42154;51.992;5.896;2024-02-16T04:12:28;2.65;;;1.55;;
56239;SDS011;42154;51.992;5.896;2024-02-16T04:14:54;1.67;;;1.40;;
56239;SDS011;42154;51.992;5.896;2024-02-16T04:17:20;2.45;;;1.70;;
56239;SDS011;42154;51.992;5.896;2024-02-16T04:19:45;3.42;;;1.75;;
56239;SDS011;42154;51.992;5.896;2024-02-16T04:22:11;2.47;;;1.40;;
56239;SDS011;42154;51.992;5.896;2024-02-16T04:24:37;4.00;;;1.80;;
56239;SDS011;42154;51.992;5.896;2024-02-16T04:27:03;3.65;;;2.15;;
56239;SDS011;42154;51.992;5.896;2024-02-16T04:29:28;4.60;;;2.28;;
56239;SDS011;42154;51.992;5.896;2024-02-16T04:31:54;3.92;;;2.10;;
56239;SDS011;42154;51.992;5.896;2024-02-16T04:34:20;2.78;;;1.85;;
56239;SDS011;42154;51.992;5.896;2024-02-16T04:36:46;3.58;;;1.50;;
56239;SDS011;42154;51.992;5.896;2024-02-16T04:39:12;3.55;;;1.70;;
56239;SDS011;42154;51.992;5.896;2024-02-16T04:41:40;3.00;;;1.58;;
56239;SDS011;42154;51.992;5.896;2024-02-16T04:44:06;2.03;;;1.35;;
56239;SDS011;42154;51.992;5.896;2024-02-16T04:46:31;2.15;;;1.40;;
56239;SDS011;42154;51.992;5.896;2024-02-16T04:48:57;2.47;;;1.77;;
56239;SDS011;42154;51.992;5.896;2024-02-16T04:51:23;1.98;;;1.27;;
56239;SDS011;42154;51.992;5.896;2024-02-16T04:53:48;2.38;;;1.20;;
56239;SDS011;42154;51.992;5.896;2024-02-16T04:56:14;3.08;;;1.13;;
56239;SDS011;42154;51.992;5.896;2024-02-16T04:58:41;2.63;;;1.75;;
56239;SDS011;42154;51.992;5.896;2024-02-16T05:01:07;1.65;;;1.30;;
56239;SDS011;42154;51.992;5.896;2024-02-16T05:03:32;2.33;;;1.20;;
56239;SDS011;42154;51.992;5.896;2024-02-16T05:05:59;1.80;;;1.17;;
56239;SDS011;42154;51.992;5.896;2024-02-16T05:08:25;3.13;;;1.30;;
56239;SDS011;42154;51.992;5.896;2024-02-16T05:10:51;1.98;;;1.17;;
56239;SDS011;42154;51.992;5.896;2024-02-16T05:13:17;1.70;;;1.20;;
56239;SDS011;42154;51.992;5.896;2024-02-16T05:15:42;1.75;;;1.45;;
56239;SDS011;42154;51.992;5.896;2024-02-16T05:18:08;1.70;;;1.38;;
56239;SDS011;42154;51.992;5.896;2024-02-16T05:20:37;3.67;;;1.45;;
56239;SDS011;42154;51.992;5.896;2024-02-16T05:23:03;1.55;;;1.20;;
56239;SDS011;42154;51.992;5.896;2024-02-16T05:25:29;3.15;;;1.50;;
56239;SDS011;42154;51.992;5.896;2024-02-16T05:27:55;3.63;;;1.42;;
56239;SDS011;42154;51.992;5.896;2024-02-16T05:30:20;2.10;;;1.33;;
56239;SDS011;42154;51.992;5.896;2024-02-16T05:32:46;2.38;;;1.60;;
56239;SDS011;42154;51.992;5.896;2024-02-16T05:35:13;2.83;;;1.52;;
56239;SDS011;42154;51.992;5.896;2024-02-16T05:37:46;3.75;;;1.83;;
56239;SDS011;42154;51.992;5.896;2024-02-16T05:40:16;2.17;;;1.45;;
56239;SDS011;42154;51.992;5.896;2024-02-16T05:42:55;3.13;;;2.00;;
56239;SDS011;42154;51.992;5.896;2024-02-16T05:45:25;2.72;;;1.85;;
56239;SDS011;42154;51.992;5.896;2024-02-16T05:47:53;1.92;;;1.42;;
56239;SDS011;42154;51.992;5.896;2024-02-16T05:50:20;3.58;;;1.60;;
56239;SDS011;42154;51.992;5.896;2024-02-16T05:52:46;2.65;;;1.70;;
56239;SDS011;42154;51.992;5.896;2024-02-16T05:55:12;2.72;;;1.40;;
56239;SDS011;42154;51.992;5.896;2024-02-16T05:57:44;2.80;;;1.55;;
56239;SDS011;42154;51.992;5.896;2024-02-16T06:00:10;2.17;;;1.52;;
56239;SDS011;42154;51.992;5.896;2024-02-16T06:02:36;2.80;;;1.42;;
56239;SDS011;42154;51.992;5.896;2024-02-16T06:05:02;2.63;;;1.63;;
56239;SDS011;42154;51.992;5.896;2024-02-16T06:07:29;3.28;;;1.90;;
56239;SDS011;42154;51.992;5.896;2024-02-16T06:09:55;3.35;;;1.58;;
56239;SDS011;42154;51.992;5.896;2024-02-16T06:12:22;2.80;;;1.50;;
56239;SDS011;42154;51.992;5.896;2024-02-16T06:14:48;2.20;;;1.58;;
56239;SDS011;42154;51.992;5.896;2024-02-16T06:17:14;3.53;;;2.00;;
56239;SDS011;42154;51.992;5.896;2024-02-16T06:19:41;2.47;;;1.83;;
56239;SDS011;42154;51.992;5.896;2024-02-16T06:22:07;2.67;;;1.63;;
56239;SDS011;42154;51.992;5.896;2024-02-16T06:24:36;3.05;;;1.70;;
56239;SDS011;42154;51.992;5.896;2024-02-16T06:27:03;3.60;;;1.75;;
56239;SDS011;42154;51.992;5.896;2024-02-16T06:29:29;2.55;;;2.00;;
56239;SDS011;42154;51.992;5.896;2024-02-16T06:31:58;3.53;;;1.60;;
56239;SDS011;42154;51.992;5.896;2024-02-16T06:34:23;2.47;;;1.73;;
56239;SDS011;42154;51.992;5.896;2024-02-16T06:36:49;3.58;;;1.88;;
56239;SDS011;42154;51.992;5.896;2024-02-16T06:39:15;3.03;;;1.60;;
56239;SDS011;42154;51.992;5.896;2024-02-16T06:41:43;3.63;;;1.77;;
56239;SDS011;42154;51.992;5.896;2024-02-16T06:44:14;2.28;;;1.73;;
56239;SDS011;42154;51.992;5.896;2024-02-16T06:46:41;3.85;;;2.08;;
56239;SDS011;42154;51.992;5.896;2024-02-16T06:49:07;2.03;;;1.58;;
56239;SDS011;42154;51.992;5.896;2024-02-16T06:51:33;2.72;;;1.50;;
56239;SDS011;42154;51.992;5.896;2024-02-16T06:53:59;2.58;;;1.95;;
56239;SDS011;42154;51.992;5.896;2024-02-16T06:56:25;3.08;;;1.75;;
56239;SDS011;42154;51.992;5.896;2024-02-16T06:58:51;2.75;;;1.75;;
56239;SDS011;42154;51.992;5.896;2024-02-16T07:01:17;3.17;;;1.67;;
56239;SDS011;42154;51.992;5.896;2024-02-16T07:03:45;3.28;;;1.95;;
56239;SDS011;42154;51.992;5.896;2024-02-16T07:06:11;2.92;;;1.77;;
56239;SDS011;42154;51.992;5.896;2024-02-16T07:08:39;3.95;;;2.05;;
56239;SDS011;42154;51.992;5.896;2024-02-16T07:11:06;3.60;;;1.80;;
56239;SDS011;42154;51.992;5.896;2024-02-16T07:13:33;3.08;;;1.83;;
56239;SDS011;42154;51.992;5.896;2024-02-16T07:15:59;3.53;;;2.13;;
56239;SDS011;42154;51.992;5.896;2024-02-16T07:18:25;4.20;;;2.28;;
56239;SDS011;42154;51.992;5.896;2024-02-16T07:20:51;3.83;;;1.95;;
56239;SDS011;42154;51.992;5.896;2024-02-16T07:23:16;3.50;;;2.13;;
56239;SDS011;42154;51.992;5.896;2024-02-16T07:25:42;3.13;;;2.00;;
56239;SDS011;42154;51.992;5.896;2024-02-16T07:28:08;4.47;;;2.13;;
56239;SDS011;42154;51.992;5.896;2024-02-16T07:30:34;3.35;;;1.92;;
56239;SDS011;42154;51.992;5.896;2024-02-16T07:33:04;3.03;;;1.98;;
56239;SDS011;42154;51.992;5.896;2024-02-16T07:35:30;3.97;;;2.30;;
56239;SDS011;42154;51.992;5.896;2024-02-16T07:37:56;6.65;;;2.40;;
56239;SDS011;42154;51.992;5.896;2024-02-16T07:40:22;6.07;;;2.65;;
56239;SDS011;42154;51.992;5.896;2024-02-16T07:42:47;3.10;;;2.63;;
56239;SDS011;42154;51.992;5.896;2024-02-16T07:45:13;4.05;;;2.53;;
56239;SDS011;42154;51.992;5.896;2024-02-16T07:47:42;4.85;;;2.47;;
56239;SDS011;42154;51.992;5.896;2024-02-16T07:50:08;4.18;;;2.72;;
56239;SDS011;42154;51.992;5.896;2024-02-16T07:52:35;4.47;;;2.90;;
56239;SDS011;42154;51.992;5.896;2024-02-16T07:55:02;4.30;;;2.38;;
56239;SDS011;42154;51.992;5.896;2024-02-16T07:57:27;2.83;;;2.10;;
56239;SDS011;42154;51.992;5.896;2024-02-16T07:59:53;3.45;;;2.10;;
56239;SDS011;42154;51.992;5.896;2024-02-16T08:02:19;2.67;;;2.15;;
56239;SDS011;42154;51.992;5.896;2024-02-16T08:04:48;1.83;;;1.52;;
56239;SDS011;42154;51.992;5.896;2024-02-16T08:07:14;2.78;;;1.95;;
56239;SDS011;42154;51.992;5.896;2024-02-16T08:09:50;3.95;;;2.40;;
56239;SDS011;42154;51.992;5.896;2024-02-16T08:12:16;3.10;;;2.03;;
56239;SDS011;42154;51.992;5.896;2024-02-16T08:14:42;2.67;;;2.00;;
56239;SDS011;42154;51.992;5.896;2024-02-16T08:17:08;3.22;;;2.20;;
56239;SDS011;42154;51.992;5.896;2024-02-16T08:19:35;4.28;;;2.90;;
56239;SDS011;42154;51.992;5.896;2024-02-16T08:22:02;3.28;;;2.40;;
56239;SDS011;42154;51.992;5.896;2024-02-16T08:24:33;3.47;;;2.50;;
56239;SDS011;42154;51.992;5.896;2024-02-16T08:26:59;3.40;;;2.10;;
56239;SDS011;42154;51.992;5.896;2024-02-16T08:29:25;3.55;;;2.20;;
56239;SDS011;42154;51.992;5.896;2024-02-16T08:31:50;3.65;;;2.53;;
56239;SDS011;42154;51.992;5.896;2024-02-16T08:34:17;4.80;;;2.50;;
56239;SDS011;42154;51.992;5.896;2024-02-16T08:36:43;4.38;;;2.50;;
56239;SDS011;42154;51.992;5.896;2024-02-16T08:39:10;4.03;;;2.90;;
56239;SDS011;42154;51.992;5.896;2024-02-16T08:41:39;4.68;;;2.40;;
56239;SDS011;42154;51.992;5.896;2024-02-16T08:44:05;5.65;;;2.58;;
56239;SDS011;42154;51.992;5.896;2024-02-16T08:46:34;2.92;;;2.00;;
56239;SDS011;42154;51.992;5.896;2024-02-16T08:49:01;3.80;;;2.78;;
56239;SDS011;42154;51.992;5.896;2024-02-16T08:51:27;4.03;;;2.58;;
56239;SDS011;42154;51.992;5.896;2024-02-16T08:53:53;4.80;;;2.50;;
56239;SDS011;42154;51.992;5.896;2024-02-16T08:56:19;4.45;;;2.70;;
56239;SDS011;42154;51.992;5.896;2024-02-16T08:58:45;7.63;;;2.60;;
56239;SDS011;42154;51.992;5.896;2024-02-16T09:01:11;4.18;;;2.28;;
56239;SDS011;42154;51.992;5.896;2024-02-16T09:03:37;2.20;;;1.90;;
56239;SDS011;42154;51.992;5.896;2024-02-16T09:06:05;4.28;;;2.40;;
56239;SDS011;42154;51.992;5.896;2024-02-16T09:08:31;3.72;;;2.35;;
56239;SDS011;42154;51.992;5.896;2024-02-16T09:10:59;4.25;;;2.55;;
56239;SDS011;42154;51.992;5.896;2024-02-16T09:13:24;3.20;;;2.50;;
56239;SDS011;42154;51.992;5.896;2024-02-16T09:15:50;3.63;;;2.25;;
56239;SDS011;42154;51.992;5.896;2024-02-16T09:18:19;5.40;;;2.33;;
56239;SDS011;42154;51.992;5.896;2024-02-16T09:20:45;4.63;;;2.92;;
56239;SDS011;42154;51.992;5.896;2024-02-16T09:23:10;3.65;;;2.75;;
56239;SDS011;42154;51.992;5.896;2024-02-16T09:25:36;3.22;;;2.47;;
56239;SDS011;42154;51.992;5.896;2024-02-16T09:28:03;3.95;;;2.33;;
56239;SDS011;42154;51.992;5.896;2024-02-16T09:30:29;5.82;;;2.40;;
56239;SDS011;42154;51.992;5.896;2024-02-16T09:32:54;6.28;;;3.40;;
56239;SDS011;42154;51.992;5.896;2024-02-16T09:35:20;5.13;;;3.75;;
56239;SDS011;42154;51.992;5.896;2024-02-16T09:37:46;5.03;;;3.20;;
56239;SDS011;42154;51.992;5.896;2024-02-16T09:40:12;4.75;;;3.55;;
56239;SDS011;42154;51.992;5.896;2024-02-16T09:42:38;4.75;;;3.20;;
56239;SDS011;42154;51.992;5.896;2024-02-16T09:45:07;7.70;;;2.60;;
56239;SDS011;42154;51.992;5.896;2024-02-16T09:47:37;4.72;;;3.13;;
56239;SDS011;42154;51.992;5.896;2024-02-16T09:50:04;5.95;;;3.17;;
56239;SDS011;42154;51.992;5.896;2024-02-16T09:52:30;7.25;;;4.07;;
56239;SDS011;42154;51.992;5.896;2024-02-16T09:54:56;6.18;;;3.38;;
56239;SDS011;42154;51.992;5.896;2024-02-16T09:57:23;5.25;;;3.40;;
56239;SDS011;42154;51.992;5.896;2024-02-16T09:59:49;6.50;;;3.78;;
56239;SDS011;42154;51.992;5.896;2024-02-16T10:02:14;6.53;;;4.03;;
56239;SDS011;42154;51.992;5.896;2024-02-16T10:04:40;8.45;;;3.92;;
56239;SDS011;42154;51.992;5.896;2024-02-16T10:07:06;8.30;;;4.07;;
56239;SDS011;42154;51.992;5.896;2024-02-16T10:09:32;6.18;;;3.30;;
56239;SDS011;42154;51.992;5.896;2024-02-16T10:11:58;6.55;;;3.83;;
56239;SDS011;42154;51.992;5.896;2024-02-16T10:14:24;8.52;;;3.70;;
56239;SDS011;42154;51.992;5.896;2024-02-16T10:17:00;7.05;;;4.07;;
56239;SDS011;42154;51.992;5.896;2024-02-16T10:19:28;6.93;;;3.35;;
56239;SDS011;42154;51.992;5.896;2024-02-16T10:22:05;5.20;;;3.58;;
56239;SDS011;42154;51.992;5.896;2024-02-16T10:24:34;4.45;;;3.03;;
56239;SDS011;42154;51.992;5.896;2024-02-16T10:27:00;4.82;;;3.60;;
56239;SDS011;42154;51.992;5.896;2024-02-16T10:29:26;8.30;;;3.40;;
56239;SDS011;42154;51.992;5.896;2024-02-16T10:31:53;6.07;;;3.88;;
56239;SDS011;42154;51.992;5.896;2024-02-16T10:34:19;6.90;;;3.17;;
56239;SDS011;42154;51.992;5.896;2024-02-16T10:36:46;7.55;;;3.53;;
56239;SDS011;42154;51.992;5.896;2024-02-16T10:39:12;5.78;;;4.28;;
56239;SDS011;42154;51.992;5.896;2024-02-16T10:41:40;5.07;;;3.72;;
56239;SDS011;42154;51.992;5.896;2024-02-16T10:44:06;4.78;;;3.63;;
56239;SDS011;42154;51.992;5.896;2024-02-16T10:46:33;5.03;;;3.30;;
56239;SDS011;42154;51.992;5.896;2024-02-16T10:48:59;6.72;;;3.63;;
56239;SDS011;42154;51.992;5.896;2024-02-16T10:51:33;6.10;;;3.92;;
56239;SDS011;42154;51.992;5.896;2024-02-16T10:54:01;5.97;;;3.90;;
56239;SDS011;42154;51.992;5.896;2024-02-16T10:56:36;5.80;;;3.50;;
56239;SDS011;42154;51.992;5.896;2024-02-16T10:59:04;6.78;;;4.65;;
56239;SDS011;42154;51.992;5.896;2024-02-16T11:01:44;7.80;;;4.28;;
56239;SDS011;42154;51.992;5.896;2024-02-16T11:04:13;7.35;;;3.70;;
56239;SDS011;42154;51.992;5.896;2024-02-16T11:06:47;7.10;;;4.13;;
56239;SDS011;42154;51.992;5.896;2024-02-16T11:09:29;6.20;;;4.35;;
56239;SDS011;42154;51.992;5.896;2024-02-16T11:12:00;5.65;;;3.60;;
56239;SDS011;42154;51.992;5.896;2024-02-16T11:17:02;6.57;;;4.45;;
56239;SDS011;42154;51.992;5.896;2024-02-16T11:19:34;5.05;;;3.92;;
56239;SDS011;42154;51.992;5.896;2024-02-16T11:22:04;7.93;;;4.30;;
56239;SDS011;42154;51.992;5.896;2024-02-16T11:24:37;7.07;;;5.50;;
56239;SDS011;42154;51.992;5.896;2024-02-16T11:27:11;10.73;;;5.78;;
56239;SDS011;42154;51.992;5.896;2024-02-16T11:29:38;9.85;;;5.82;;
56239;SDS011;42154;51.992;5.896;2024-02-16T11:32:05;7.70;;;4.90;;
56239;SDS011;42154;51.992;5.896;2024-02-16T11:34:32;9.27;;;5.25;;
56239;SDS011;42154;51.992;5.896;2024-02-16T11:36:59;9.93;;;5.75;;
56239;SDS011;42154;51.992;5.896;2024-02-16T11:39:26;10.57;;;5.80;;
56239;SDS011;42154;51.992;5.896;2024-02-16T11:42:01;10.70;;;6.68;;
56239;SDS011;42154;51.992;5.896;2024-02-16T11:44:28;10.48;;;7.15;;
56239;SDS011;42154;51.992;5.896;2024-02-16T11:46:56;9.57;;;6.38;;
56239;SDS011;42154;51.992;5.896;2024-02-16T11:49:23;9.57;;;6.30;;
56239;SDS011;42154;51.992;5.896;2024-02-16T11:51:49;8.68;;;6.30;;
56239;SDS011;42154;51.992;5.896;2024-02-16T11:54:14;9.90;;;6.78;;
56239;SDS011;42154;51.992;5.896;2024-02-16T11:56:50;7.72;;;6.93;;
56239;SDS011;42154;51.992;5.896;2024-02-16T11:59:17;12.90;;;7.10;;
56239;SDS011;42154;51.992;5.896;2024-02-16T12:01:50;8.43;;;6.95;;
56239;SDS011;42154;51.992;5.896;2024-02-16T12:04:24;11.23;;;7.57;;
56239;SDS011;42154;51.992;5.896;2024-02-16T12:09:23;11.95;;;7.43;;
56239;SDS011;42154;51.992;5.896;2024-02-16T12:11:52;8.57;;;7.15;;
56239;SDS011;42154;51.992;5.896;2024-02-16T12:14:19;8.98;;;6.57;;
56239;SDS011;42154;51.992;5.896;2024-02-16T12:16:49;9.55;;;7.03;;
56239;SDS011;42154;51.992;5.896;2024-02-16T12:19:18;8.23;;;6.83;;
56239;SDS011;42154;51.992;5.896;2024-02-16T12:21:43;8.85;;;6.90;;
56239;SDS011;42154;51.992;5.896;2024-02-16T12:24:10;8.55;;;6.60;;
56239;SDS011;42154;51.992;5.896;2024-02-16T12:26:36;8.20;;;6.60;;
56239;SDS011;42154;51.992;5.896;2024-02-16T12:29:02;9.43;;;6.57;;
56239;SDS011;42154;51.992;5.896;2024-02-16T12:31:29;7.88;;;6.43;;
56239;SDS011;42154;51.992;5.896;2024-02-16T12:33:56;7.80;;;6.63;;
56239;SDS011;42154;51.992;5.896;2024-02-16T12:36:21;8.85;;;7.60;;
56239;SDS011;42154;51.992;5.896;2024-02-16T12:38:48;7.70;;;6.35;;
56239;SDS011;42154;51.992;5.896;2024-02-16T12:41:15;8.02;;;6.75;;
56239;SDS011;42154;51.992;5.896;2024-02-16T12:43:41;7.55;;;6.75;;
56239;SDS011;42154;51.992;5.896;2024-02-16T12:46:06;7.60;;;6.68;;
56239;SDS011;42154;51.992;5.896;2024-02-16T12:48:32;8.00;;;6.80;;
56239;SDS011;42154;51.992;5.896;2024-02-16T12:50:58;7.85;;;6.30;;
56239;SDS011;42154;51.992;5.896;2024-02-16T12:53:24;8.93;;;7.30;;
56239;SDS011;42154;51.992;5.896;2024-02-16T12:55:55;7.38;;;6.57;;
56239;SDS011;42154;51.992;5.896;2024-02-16T12:58:21;7.28;;;6.57;;
56239;SDS011;42154;51.992;5.896;2024-02-16T13:00:46;8.30;;;7.40;;
56239;SDS011;42154;51.992;5.896;2024-02-16T13:03:12;7.82;;;6.78;;
56239;SDS011;42154;51.992;5.896;2024-02-16T13:05:38;7.88;;;7.07;;
56239;SDS011;42154;51.992;5.896;2024-02-16T13:08:04;8.02;;;7.20;;
56239;SDS011;42154;51.992;5.896;2024-02-16T13:10:30;7.32;;;6.60;;
56239;SDS011;42154;51.992;5.896;2024-02-16T13:12:55;8.23;;;6.18;;
56239;SDS011;42154;51.992;5.896;2024-02-16T13:15:21;9.48;;;7.00;;
56239;SDS011;42154;51.992;5.896;2024-02-16T13:17:47;10.07;;;7.00;;
56239;SDS011;42154;51.992;5.896;2024-02-16T13:20:12;8.45;;;6.63;;
56239;SDS011;42154;51.992;5.896;2024-02-16T13:22:38;8.38;;;7.32;;
56239;SDS011;42154;51.992;5.896;2024-02-16T13:25:04;9.23;;;7.85;;
56239;SDS011;42154;51.992;5.896;2024-02-16T13:27:32;10.20;;;7.43;;
56239;SDS011;42154;51.992;5.896;2024-02-16T13:29:58;8.88;;;7.22;;
56239;SDS011;42154;51.992;5.896;2024-02-16T13:32:24;8.90;;;7.57;;
56239;SDS011;42154;51.992;5.896;2024-02-16T13:34:50;7.47;;;6.57;;
56239;SDS011;42154;51.992;5.896;2024-02-16T13:37:15;8.05;;;6.93;;
56239;SDS011;42154;51.992;5.896;2024-02-16T13:39:41;9.07;;;7.70;;
56239;SDS011;42154;51.992;5.896;2024-02-16T13:42:07;7.32;;;6.05;;
56239;SDS011;42154;51.992;5.896;2024-02-16T13:44:33;6.70;;;6.00;;
56239;SDS011;42154;51.992;5.896;2024-02-16T13:46:59;7.25;;;6.55;;
56239;SDS011;42154;51.992;5.896;2024-02-16T13:49:24;6.32;;;5.72;;
56239;SDS011;42154;51.992;5.896;2024-02-16T13:51:50;6.90;;;6.20;;
56239;SDS011;42154;51.992;5.896;2024-02-16T13:54:16;8.18;;;6.28;;
56239;SDS011;42154;51.992;5.896;2024-02-16T13:56:42;8.13;;;6.22;;
56239;SDS011;42154;51.992;5.896;2024-02-16T13:59:08;6.95;;;5.90;;
56239;SDS011;42154;51.992;5.896;2024-02-16T14:01:34;5.93;;;5.18;;
56239;SDS011;42154;51.992;5.896;2024-02-16T14:04:02;4.90;;;4.40;;
56239;SDS011;42154;51.992;5.896;2024-02-16T14:06:28;4.90;;;4.40;;
56239;SDS011;42154;51.992;5.896;2024-02-16T14:08:56;4.47;;;4.03;;
56239;SDS011;42154;51.992;5.896;2024-02-16T14:11:22;5.57;;;4.35;;
56239;SDS011;42154;51.992;5.896;2024-02-16T14:13:48;4.90;;;4.03;;
56239;SDS011;42154;51.992;5.896;2024-02-16T14:16:15;4.75;;;4.35;;
56239;SDS011;42154;51.992;5.896;2024-02-16T14:18:40;5.70;;;5.18;;
56239;SDS011;42154;51.992;5.896;2024-02-16T14:21:06;10.00;;;8.10;;
56239;SDS011;42154;51.992;5.896;2024-02-16T14:23:32;7.13;;;6.13;;
56239;SDS011;42154;51.992;5.896;2024-02-16T14:25:58;5.78;;;5.15;;
56239;SDS011;42154;51.992;5.896;2024-02-16T14:28:24;5.53;;;4.32;;
56239;SDS011;42154;51.992;5.896;2024-02-16T14:30:50;4.68;;;3.63;;
56239;SDS011;42154;51.992;5.896;2024-02-16T14:33:16;4.13;;;3.28;;
56239;SDS011;42154;51.992;5.896;2024-02-16T14:35:42;3.83;;;3.00;;
56239;SDS011;42154;51.992;5.896;2024-02-16T14:38:08;3.28;;;2.97;;
56239;SDS011;42154;51.992;5.896;2024-02-16T14:40:35;3.75;;;2.40;;
56239;SDS011;42154;51.992;5.896;2024-02-16T14:43:01;3.45;;;2.65;;
56239;SDS011;42154;51.992;5.896;2024-02-16T14:45:27;2.28;;;1.92;;
56239;SDS011;42154;51.992;5.896;2024-02-16T14:47:53;2.53;;;2.30;;
56239;SDS011;42154;51.992;5.896;2024-02-16T14:50:18;2.03;;;1.75;;